Time;durP1;ratioP1;P1;durP2;ratioP2;P2;SDS_P1;SDS_P2;PMS_P1;PMS_P2;Temp;Humidity;BMP_temperature;BMP_pressure;BME280_temperature;BME280_humidity;BME280_pressure;Samples;Min_cycle;Max_cycle;Signal;HPM_P1;HPM_P2
2022/08/10 00:01:37;;;;;;;6.10;5.47;;;16.40;1.00;;;;;;10448427;28;20199;-81
2022/08/10 00:06:59;;;;;;;7.45;5.65;;;16.40;1.00;;;;;;10461607;28;20501;-80
2022/08/10 00:12:21;;;;;;;7.43;6.60;;;16.40;1.00;;;;;;10460928;28;20228;-81
2022/08/10 00:17:42;;;;;;;7.22;5.88;;;16.40;1.00;;;;;;10491548;28;20231;-81
2022/08/10 00:23:04;;;;;;;8.65;6.65;;;16.40;1.00;;;;;;10492202;28;20260;-81
2022/08/10 00:28:25;;;;;;;6.53;5.85;;;16.20;1.00;;;;;;10475386;28;20499;-80
2022/08/10 00:33:46;;;;;;;8.70;6.88;;;16.20;1.00;;;;;;10475483;28;20190;-80
2022/08/10 00:39:07;;;;;;;7.75;5.93;;;16.10;1.00;;;;;;10492136;28;20229;-81
2022/08/10 00:44:31;;;;;;;6.70;5.35;;;16.10;1.00;;;;;;10500101;28;20482;-81
2022/08/10 00:49:53;;;;;;;7.72;6.20;;;16.10;1.00;;;;;;10482482;28;20191;-81
2022/08/10 00:55:15;;;;;;;10.32;6.57;;;16.00;1.00;;;;;;10468617;28;20198;-80
2022/08/10 01:00:36;;;;;;;9.40;6.78;;;15.90;1.00;;;;;;10427492;28;20199;-81
2022/08/10 01:06:03;;;;;;;7.10;6.05;;;15.90;1.00;;;;;;10446975;28;20214;-80
2022/08/10 01:11:37;;;;;;;9.98;5.63;;;15.90;1.00;;;;;;10465712;28;20202;-81
2022/08/10 01:17:27;;;;;;;8.43;6.53;;;15.70;1.00;;;;;;10509995;28;20296;-80
2022/08/10 01:22:54;;;;;;;8.00;5.95;;;15.60;1.00;;;;;;10441305;28;20433;-81
2022/08/10 01:28:41;;;;;;;7.50;6.10;;;15.70;1.00;;;;;;10464086;28;20199;-81
2022/08/10 01:34:18;;;;;;;8.60;6.05;;;15.70;1.00;;;;;;10481186;28;20193;-81
2022/08/10 01:39:44;;;;;;;9.52;6.00;;;15.50;1.00;;;;;;10466397;28;20211;-80
2022/08/10 01:45:08;;;;;;;9.07;5.90;;;15.50;1.00;;;;;;10481306;28;20233;-80
2022/08/10 01:50:40;;;;;;;7.05;6.00;;;15.40;1.00;;;;;;10465655;28;20199;-81
2022/08/10 01:56:03;;;;;;;8.57;6.05;;;15.30;1.00;;;;;;10465637;28;20197;-81
2022/08/10 02:01:28;;;;;;;7.47;6.10;;;15.30;1.00;;;;;;10480922;28;20193;-81
2022/08/10 02:06:53;;;;;;;7.13;5.80;;;15.20;1.00;;;;;;10479910;28;20218;-80
2022/08/10 02:12:19;;;;;;;6.90;5.88;;;15.20;1.00;;;;;;10475971;28;20211;-80
2022/08/10 02:17:45;;;;;;;6.88;5.82;;;15.20;1.00;;;;;;10473324;28;20440;-80
2022/08/10 02:23:11;;;;;;;6.10;5.30;;;15.20;1.00;;;;;;10464281;28;20235;-80
2022/08/10 02:28:34;;;;;;;7.00;5.20;;;15.20;1.00;;;;;;10479298;28;20249;-80
2022/08/10 02:33:56;;;;;;;5.55;4.93;;;15.20;1.00;;;;;;10464497;28;20223;-79
2022/08/10 02:39:19;;;;;;;9.45;4.80;;;15.00;1.00;;;;;;10479160;28;20195;-80
2022/08/10 02:45:05;;;;;;;9.60;5.15;;;15.00;1.00;;;;;;10464885;28;20291;-80
2022/08/10 02:50:32;;;;;;;5.72;4.30;;;15.00;1.00;;;;;;10478659;28;20440;-80
2022/08/10 02:55:57;;;;;;;6.10;4.57;;;15.00;1.00;;;;;;10477627;28;20512;-80
2022/08/10 03:01:22;;;;;;;5.47;4.88;;;14.90;1.00;;;;;;10494068;28;20278;-80
2022/08/10 03:06:53;;;;;;;5.45;4.50;;;14.80;1.00;;;;;;10463584;28;20543;-79
2022/08/10 03:12:16;;;;;;;8.48;4.70;;;14.80;1.00;;;;;;10465160;28;20218;-80
2022/08/10 03:17:40;;;;;;;11.90;9.07;;;14.80;1.00;;;;;;10476626;28;20226;-80
2022/08/10 03:23:11;;;;;;;20.23;14.77;;;14.80;1.00;;;;;;10461955;28;20610;-80
2022/08/10 03:28:34;;;;;;;27.65;20.45;;;14.90;4.90;;;;;;10463270;28;20511;-80
2022/08/10 03:33:57;;;;;;;24.77;20.13;;;14.80;1.00;;;;;;10462006;28;20385;-80
2022/08/10 03:39:18;;;;;;;12.18;9.43;;;14.70;1.00;;;;;;10448934;28;20462;-79
2022/08/10 03:44:41;;;;;;;7.78;6.15;;;14.60;1.00;;;;;;10439527;28;20393;-80
2022/08/10 03:50:06;;;;;;;8.15;5.18;;;14.60;1.00;;;;;;10476784;28;20260;-80
2022/08/10 03:55:28;;;;;;;5.65;4.30;;;14.60;1.00;;;;;;10475795;28;20199;-80
2022/08/10 04:00:50;;;;;;;9.38;5.00;;;14.60;1.00;;;;;;10475752;28;20195;-79
2022/08/10 04:06:12;;;;;;;4.88;4.13;;;14.60;1.00;;;;;;10475806;28;20239;-80
2022/08/10 04:11:35;;;;;;;4.22;3.83;;;14.60;1.00;;;;;;10460357;28;20212;-80
2022/08/10 04:16:56;;;;;;;3.60;3.30;;;14.80;3.80;;;;;;10465867;28;20191;-80
2022/08/10 04:22:22;;;;;;;4.05;3.50;;;14.90;1.00;;;;;;10469259;28;20213;-80
2022/08/10 04:27:44;;;;;;;5.07;3.80;;;14.80;1.00;;;;;;10469480;28;20272;-80
2022/08/10 04:33:08;;;;;;;3.88;3.58;;;14.90;1.00;;;;;;10455186;28;20191;-80
2022/08/10 04:38:31;;;;;;;4.50;3.78;;;14.90;24.30;;;;;;10446764;28;20195;-80
2022/08/10 04:43:52;;;;;;;4.63;3.75;;;15.10;21.10;;;;;;10465114;28;20264;-79
2022/08/10 04:49:13;;;;;;;4.13;3.67;;;15.10;5.20;;;;;;10499657;28;20218;-80
2022/08/10 04:54:35;;;;;;;3.92;3.50;;;15.30;9.00;;;;;;10483230;28;20199;-80
2022/08/10 04:59:56;;;;;;;7.13;4.43;;;15.40;52.10;;;;;;10467156;28;20377;-80
2022/08/10 05:05:18;;;;;;;7.70;4.82;;;15.60;88.60;;;;;;10468372;28;20225;-80
2022/08/10 05:10:39;;;;;;;4.97;3.90;;;15.70;99.90;;;;;;10454157;28;20209;-80
2022/08/10 05:16:00;;;;;;;4.57;3.38;;;15.90;99.90;;;;;;10467902;28;20451;-80
2022/08/10 05:21:22;;;;;;;4.10;3.53;;;16.10;99.90;;;;;;10480954;28;20551;-80
2022/08/10 05:26:44;;;;;;;4.65;3.70;;;16.20;99.90;;;;;;10466830;28;20244;-80
2022/08/10 05:32:05;;;;;;;3.83;3.42;;;16.30;99.90;;;;;;10482334;28;20262;-80
2022/08/10 05:37:31;;;;;;;5.70;4.05;;;16.50;99.60;;;;;;10481657;28;20204;-79
2022/08/10 05:42:52;;;;;;;5.32;3.95;;;16.60;99.90;;;;;;10466584;28;20209;-79
2022/08/10 05:48:13;;;;;;;8.50;4.80;;;16.70;99.90;;;;;;10458850;28;20207;-79
2022/08/10 05:53:37;;;;;;;5.03;3.30;;;16.80;99.30;;;;;;10442036;28;20194;-80
2022/08/10 05:58:59;;;;;;;4.53;3.00;;;16.90;99.90;;;;;;10465365;28;20208;-79
2022/08/10 06:04:29;;;;;;;4.45;3.00;;;17.10;91.00;;;;;;10465808;28;20227;-79
2022/08/10 06:09:51;;;;;;;5.20;3.88;;;17.40;49.70;;;;;;10472493;28;20250;-79
2022/08/10 06:15:26;;;;;;;7.00;4.55;;;17.60;23.90;;;;;;10467748;28;20218;-79
2022/08/10 06:20:50;;;;;;;5.43;3.28;;;18.00;1.00;;;;;;10478808;28;20243;-80
2022/08/10 06:26:11;;;;;;;4.30;2.22;;;18.40;1.00;;;;;;10478810;28;20538;-80
2022/08/10 06:31:38;;;;;;;3.10;2.80;;;19.00;1.00;;;;;;10478852;28;20191;-80
2022/08/10 06:37:02;;;;;;;3.45;2.70;;;19.60;1.00;;;;;;10463367;28;20196;-80
2022/08/10 06:42:36;;;;;;;4.13;2.67;;;19.90;99.90;;;;;;10464164;28;20518;-80
2022/08/10 06:48:03;;;;;;;3.80;2.40;;;20.80;15.80;;;;;;10479500;28;20233;-80
2022/08/10 06:53:36;;;;;;;3.90;2.42;;;21.60;1.00;;;;;;10478533;28;20219;-80
2022/08/10 06:59:08;;;;;;;4.93;3.42;;;21.40;99.90;;;;;;10502256;28;20242;-80
2022/08/10 07:04:33;;;;;;;22.63;12.27;;;21.30;99.90;;;;;;10477333;28;20216;-81
2022/08/10 07:09:57;;;;;;;10.60;6.03;;;21.80;46.60;;;;;;10469825;28;20242;-80
2022/08/10 07:15:20;;;;;;;2.45;2.00;;;23.10;1.00;;;;;;10427801;28;20315;-84
2022/08/10 07:20:44;;;;;;;3.08;1.67;;;23.40;99.90;;;;;;10427934;28;20479;-80
2022/08/10 07:26:17;;;;;;;18.30;9.18;;;24.00;1.00;;;;;;10416941;28;20224;-80
2022/08/10 07:31:40;;;;;;;10.68;5.07;;;25.00;1.00;;;;;;10417337;28;20197;-80
2022/08/10 07:37:05;;;;;;;3.40;2.00;;;25.70;99.90;;;;;;10430758;28;20212;-81
2022/08/10 07:42:28;;;;;;;2.15;1.85;;;26.30;99.90;;;;;;10430957;28;20189;-80
2022/08/10 07:48:22;;;;;;;1.98;1.50;;;26.90;99.90;;;;;;10415764;28;20275;-79
2022/08/10 07:53:52;;;;;;;1.50;1.23;;;27.30;99.90;;;;;;10424443;28;20203;-78
2022/08/10 07:59:21;;;;;;;2.42;1.50;;;27.70;99.90;;;;;;10465340;28;20500;-80
2022/08/10 08:04:44;;;;;;;4.45;1.38;;;28.00;99.90;;;;;;10456646;28;20246;-78
2022/08/10 08:10:07;;;;;;;2.83;1.77;;;28.30;99.10;;;;;;10398716;28;20205;-79
2022/08/10 08:15:32;;;;;;;1.85;1.30;;;28.50;90.10;;;;;;10410301;28;20272;-77
2022/08/10 08:20:54;;;;;;;2.28;1.67;;;28.80;52.50;;;;;;10430259;28;20465;-77
2022/08/10 08:26:17;;;;;;;11.20;3.20;;;;;;;;;;10429171;28;20228;-78
2022/08/10 08:31:39;;;;;;;3.28;1.67;;;;;;;;;;10430635;28;20366;-80
2022/08/10 08:37:02;;;;;;;2.85;1.83;;;29.70;1.00;;;;;;10395663;28;20193;-77
2022/08/10 08:42:51;;;;;;;2.63;1.48;;;29.70;1.00;;;;;;10389963;28;20197;-84
2022/08/10 08:48:18;;;;;;;3.45;2.03;;;30.10;1.00;;;;;;10422797;28;20212;-79
2022/08/10 08:54:04;;;;;;;4.60;2.00;;;30.50;1.00;;;;;;10428614;28;20212;-78
2022/08/10 08:59:43;;;;;;;3.20;1.63;;;30.50;1.00;;;;;;10468850;28;20203;-78
2022/08/10 09:05:20;;;;;;;3.85;1.55;;;30.80;1.00;;;;;;10462255;28;20224;-79
2022/08/10 09:11:07;;;;;;;3.63;1.77;;;31.00;1.00;;;;;;10423926;28;20205;-83
2022/08/10 09:16:39;;;;;;;4.32;2.10;;;31.30;1.00;;;;;;10439256;28;20498;-81
2022/08/10 09:22:12;;;;;;;2.08;1.77;;;31.50;1.00;;;;;;10503281;28;20480;-79
2022/08/10 09:27:44;;;;;;;2.30;1.50;;;31.60;1.00;;;;;;10417149;28;20217;-80
2022/08/10 09:33:12;;;;;;;3.53;1.70;;;31.20;1.00;;;;;;10420907;28;20232;-86
2022/08/10 09:38:42;;;;;;;2.30;1.60;;;31.80;1.00;;;;;;10424465;28;20216;-79
2022/08/10 09:44:38;;;;;;;1.52;1.42;;;32.00;1.00;;;;;;10419912;28;20228;-81
2022/08/10 09:50:23;;;;;;;3.25;2.42;;;30.90;1.00;;;;;;10434538;28;20212;-79
2022/08/10 09:55:55;;;;;;;7.18;2.22;;;30.30;1.00;;;;;;10459355;28;20191;-78
2022/08/10 10:01:38;;;;;;;2.30;2.10;;;31.00;1.00;;;;;;10475097;28;20208;-78
2022/08/10 10:07:05;;;;;;;1.58;1.48;;;31.60;1.00;;;;;;10406364;28;20234;-79
2022/08/10 10:12:43;;;;;;;10.32;5.20;;;32.20;1.00;;;;;;10411076;28;20208;-79
2022/08/10 10:18:40;;;;;;;3.05;1.80;;;32.40;1.00;;;;;;10432828;28;20240;-78
2022/08/10 10:24:23;;;;;;;4.07;1.45;;;32.80;1.00;;;;;;10448903;28;20259;-80
2022/08/10 10:30:03;;;;;;;1.98;1.33;;;32.80;1.00;;;;;;10417124;28;20296;-80
2022/08/10 10:35:30;;;;;;;3.83;2.03;;;32.90;1.00;;;;;;10389642;28;20213;-83
2022/08/10 10:41:00;;;;;;;5.82;2.20;;;;;;;;;;10398707;28;20199;-90
2022/08/10 10:46:59;;;;;;;2.45;1.67;;;33.30;1.00;;;;;;10417483;28;20224;-79
2022/08/10 10:52:48;;;;;;;4.95;1.63;;;33.40;1.00;;;;;;10416904;28;20203;-83
2022/08/10 10:58:19;;;;;;;19.42;10.02;;;33.20;1.00;;;;;;10460414;28;20455;-82
2022/08/10 11:04:23;;;;;;;1.75;1.65;;;33.40;1.00;;;;;;10425293;28;20553;-80
2022/08/10 11:09:48;;;;;;;1.83;1.27;;;33.60;1.00;;;;;;10381892;28;20236;-82
2022/08/10 11:15:27;;;;;;;1.50;1.38;;;33.60;1.00;;;;;;10398544;28;20280;-81
2022/08/10 11:21:14;;;;;;;18.92;2.08;;;33.40;1.00;;;;;;10426223;28;20546;-81
2022/08/10 11:27:15;;;;;;;2.42;1.75;;;33.20;1.00;;;;;;10388795;28;20322;-82
2022/08/10 11:33:07;;;;;;;2.92;1.30;;;33.10;1.00;;;;;;10411013;28;20391;-81
2022/08/10 11:38:59;;;;;;;2.78;1.55;;;32.80;1.00;;;;;;10393747;28;20212;-79
2022/08/10 11:44:39;;;;;;;1.92;1.30;;;33.20;1.00;;;;;;10427635;28;20236;-79
2022/08/10 11:50:24;;;;;;;7.70;2.20;;;33.20;1.00;;;;;;10431192;28;20196;-79
2022/08/10 11:55:53;;;;;;;3.15;1.20;;;33.10;1.00;;;;;;10412890;28;20239;-79
2022/08/10 12:01:19;;;;;;;2.55;1.50;;;32.50;1.00;;;;;;10425135;28;20381;-79
2022/08/10 12:06:42;;;;;;;1.27;1.17;;;32.70;1.00;;;;;;10426131;28;20228;-80
2022/08/10 12:12:20;;;;;;;2.00;1.25;;;32.80;1.00;;;;;;10425107;28;20519;-80
2022/08/10 12:17:48;;;;;;;8.52;2.80;;;33.00;1.00;;;;;;10432765;28;20305;-78
2022/08/10 12:23:18;;;;;;;5.03;1.90;;;32.80;1.00;;;;;;10428859;28;20208;-78
2022/08/10 12:29:02;;;;;;;2.20;1.65;;;32.10;1.00;;;;;;10429898;28;20197;-78
2022/08/10 12:34:48;;;;;;;5.13;2.20;;;30.90;1.00;;;;;;10423590;28;20189;-81
2022/08/10 12:40:21;;;;;;;5.35;2.63;;;31.00;1.00;;;;;;10435205;28;20250;-80
2022/08/10 12:46:05;;;;;;;1.90;1.80;;;31.30;1.00;;;;;;10432825;28;20242;-80
2022/08/10 12:51:30;;;;;;;2.00;1.58;;;31.70;1.00;;;;;;10435059;28;20200;-79
2022/08/10 12:57:06;;;;;;;3.35;1.95;;;32.00;1.00;;;;;;10450991;28;20197;-78
2022/08/10 13:02:32;;;;;;;4.60;3.28;;;31.90;1.00;;;;;;10435700;28;20267;-78
2022/08/10 13:13:44;;;;;;;3.13;2.17;;;29.90;1.00;;;;;;10397981;28;20295;-78
2022/08/10 13:19:09;;;;;;;3.05;1.40;;;29.00;1.00;;;;;;10420407;28;20282;-78
2022/08/10 13:24:38;;;;;;;1.33;1.20;;;29.10;1.00;;;;;;10421006;28;20232;-83
2022/08/10 13:30:05;;;;;;;2.22;1.60;;;29.60;1.00;;;;;;10427565;28;20510;-84
2022/08/10 13:35:28;;;;;;;2.25;1.10;;;29.80;1.00;;;;;;10421821;28;20208;-84
2022/08/10 13:40:51;;;;;;;2.35;1.90;;;30.00;1.00;;;;;;10434702;28;20598;-80
2022/08/10 13:46:17;;;;;;;4.22;1.45;;;30.20;1.00;;;;;;10436304;28;20221;-84
2022/08/10 13:51:40;;;;;;;1.70;1.23;;;30.00;1.00;;;;;;10438299;28;20414;-84
2022/08/10 13:57:03;;;;;;;2.33;1.35;;;29.20;1.00;;;;;;10456391;28;20195;-80
2022/08/10 14:02:39;;;;;;;1.63;1.20;;;29.20;1.00;;;;;;10434054;28;20196;-79
2022/08/10 14:08:11;;;;;;;1.88;1.55;;;29.30;1.00;;;;;;10437320;28;20255;-85
2022/08/10 14:13:36;;;;;;;1.73;1.40;;;29.10;1.00;;;;;;10429672;28;20255;-80
2022/08/10 14:19:03;;;;;;;1.67;1.40;;;28.80;1.00;;;;;;10435571;28;20245;-80
2022/08/10 14:24:30;;;;;;;2.33;1.35;;;28.70;1.00;;;;;;10449257;28;20223;-80
2022/08/10 14:29:55;;;;;;;2.17;1.38;;;28.60;1.00;;;;;;10439537;28;20264;-79
2022/08/10 14:35:19;;;;;;;2.70;1.20;;;28.70;1.00;;;;;;10438938;28;20188;-80
2022/08/10 14:40:50;;;;;;;1.60;1.30;;;28.60;1.00;;;;;;10454600;28;20499;-80
2022/08/10 14:46:18;;;;;;;4.55;1.52;;;28.60;1.00;;;;;;10438809;28;20576;-79
2022/08/10 14:51:45;;;;;;;2.65;1.70;;;28.40;1.00;;;;;;10423367;28;20197;-79
2022/08/10 14:57:10;;;;;;;3.40;2.25;;;28.30;1.00;;;;;;10458239;28;20514;-79
2022/08/10 15:02:45;;;;;;;5.50;4.55;;;28.20;1.00;;;;;;10480693;28;20267;-81
2022/08/10 15:08:10;;;;;;;6.38;3.13;;;27.80;1.00;;;;;;10477476;28;20243;-80
2022/08/10 15:13:32;;;;;;;3.25;1.88;;;27.40;1.00;;;;;;10401453;28;20208;-81
2022/08/10 15:18:58;;;;;;;3.05;1.40;;;27.20;1.00;;;;;;10421219;28;20236;-80
2022/08/10 15:30:05;;;;;;;1.33;1.15;;;27.20;1.00;;;;;;10435973;28;20185;-79
2022/08/10 15:41:10;;;;;;;2.47;1.30;;;26.90;1.00;;;;;;10435838;28;20216;-81
2022/08/10 15:46:51;;;;;;;2.17;1.50;;;26.90;1.00;;;;;;10437975;28;20227;-79
2022/08/10 15:52:23;;;;;;;5.68;1.70;;;26.70;1.00;;;;;;10458932;28;20188;-80
2022/08/10 15:57:47;;;;;;;3.13;1.42;;;;;;;;;;10476923;28;20249;-80
2022/08/10 16:03:23;;;;;;;2.63;1.58;;;26.40;95.70;;;;;;10476331;28;20195;-80
2022/08/10 16:08:52;;;;;;;2.70;1.42;;;26.30;1.00;;;;;;10475050;28;20223;-79
2022/08/10 16:14:22;;;;;;;2.75;1.55;;;26.10;1.00;;;;;;10443246;28;20380;-80
2022/08/10 16:19:53;;;;;;;3.08;1.48;;;26.00;1.00;;;;;;10444266;28;20291;-78
2022/08/10 16:25:16;;;;;;;1.75;1.50;;;25.90;1.00;;;;;;10444217;28;20530;-79
2022/08/10 16:30:38;;;;;;;1.65;1.10;;;;;;;;;;10445907;28;20429;-81
2022/08/10 16:36:06;;;;;;;1.48;1.38;;;25.70;1.00;;;;;;10445421;28;20200;-80
2022/08/10 16:41:28;;;;;;;2.65;1.35;;;25.60;1.00;;;;;;10444755;28;20397;-79
2022/08/10 16:46:50;;;;;;;3.13;1.30;;;25.60;1.00;;;;;;10443323;28;20533;-80
2022/08/10 16:52:13;;;;;;;2.83;1.50;;;25.50;1.00;;;;;;10443721;28;20193;-80
2022/08/10 16:57:40;;;;;;;10.15;4.50;;;25.30;1.00;;;;;;10467067;28;20192;-79
2022/08/10 17:03:05;;;;;;;4.95;2.90;;;25.20;1.00;;;;;;10483175;28;20196;-79
2022/08/10 17:08:28;;;;;;;3.50;1.98;;;24.90;1.00;;;;;;10497606;28;20231;-79
2022/08/10 17:13:53;;;;;;;2.63;1.52;;;24.70;1.00;;;;;;10419688;28;20243;-79
2022/08/10 17:19:21;;;;;;;1.88;1.30;;;24.50;1.00;;;;;;10429555;28;20232;-80
2022/08/10 17:24:47;;;;;;;2.03;1.27;;;24.20;1.00;;;;;;10441677;28;20212;-79
2022/08/10 17:30:19;;;;;;;1.58;1.15;;;;;;;;;;10441783;28;20271;-78
2022/08/10 17:35:46;;;;;;;1.67;1.20;;;23.80;1.00;;;;;;10443341;28;20207;-80
2022/08/10 17:41:12;;;;;;;2.95;1.83;;;23.60;1.00;;;;;;10426459;28;20196;-78
2022/08/10 17:46:39;;;;;;;3.97;1.60;;;23.40;1.00;;;;;;10440198;28;20235;-79
2022/08/10 17:52:04;;;;;;;6.57;1.95;;;23.30;20.40;;;;;;10442244;28;20192;-79
2022/08/10 17:57:27;;;;;;;4.32;1.63;;;23.00;98.90;;;;;;10463475;28;20191;-80
2022/08/10 18:02:49;;;;;;;4.05;2.20;;;22.90;99.90;;;;;;10480915;28;20238;-79
2022/08/10 18:08:13;;;;;;;3.53;2.35;;;22.70;99.90;;;;;;10492625;28;20291;-79
2022/08/10 18:13:37;;;;;;;3.00;2.28;;;22.70;1.00;;;;;;10402713;28;20197;-78
2022/08/10 18:19:11;;;;;;;4.20;2.10;;;22.50;1.00;;;;;;10398886;28;20248;-79
2022/08/10 18:24:36;;;;;;;3.53;1.88;;;22.30;1.00;;;;;;10430865;28;20208;-78
2022/08/10 18:30:03;;;;;;;6.25;2.10;;;22.20;99.90;;;;;;10426890;28;20189;-79
2022/08/10 18:35:28;;;;;;;2.25;1.80;;;22.00;1.00;;;;;;10423477;28;20204;-79
2022/08/10 18:40:56;;;;;;;2.97;1.95;;;21.80;99.90;;;;;;10439349;28;20201;-79
2022/08/10 18:46:23;;;;;;;3.15;1.98;;;21.70;1.00;;;;;;10438110;28;20402;-79
2022/08/10 18:51:47;;;;;;;2.20;1.85;;;21.60;99.90;;;;;;10438907;28;20218;-79
2022/08/10 18:57:34;;;;;;;4.05;2.00;;;21.40;1.00;;;;;;10458720;28;20249;-84
2022/08/10 19:03:58;;;;;;;3.47;2.17;;;21.30;1.00;;;;;;10478853;28;20195;-78
2022/08/10 19:09:46;;;;;;;6.05;2.33;;;21.20;99.90;;;;;;10399976;28;20314;-79
2022/08/10 19:15:08;;;;;;;4.93;1.92;;;;;;;;;;10391845;28;20200;-78
2022/08/10 19:20:30;;;;;;;2.13;1.92;;;;;;;;;;10352444;28;20305;-78
2022/08/10 19:26:00;;;;;;;3.97;2.30;;;20.80;1.00;;;;;;10338326;28;20548;-78
2022/08/10 19:31:49;;;;;;;3.65;2.75;;;20.60;1.00;;;;;;10335880;28;20209;-79
2022/08/10 19:37:24;;;;;;;4.65;2.30;;;20.50;99.90;;;;;;10365121;28;20242;-78
2022/08/10 19:42:52;;;;;;;3.65;2.65;;;20.40;1.00;;;;;;10438297;28;20222;-79
2022/08/10 19:48:37;;;;;;;2.55;2.20;;;20.40;1.00;;;;;;10421558;28;20227;-78
2022/08/10 19:54:09;;;;;;;3.22;2.92;;;20.20;1.00;;;;;;10436529;28;20501;-79
2022/08/10 19:59:49;;;;;;;2.95;2.45;;;20.20;1.00;;;;;;10482520;28;20201;-79
2022/08/10 20:05:30;;;;;;;2.92;2.50;;;20.10;1.00;;;;;;10436750;28;20211;-79
2022/08/10 20:11:04;;;;;;;4.10;2.95;;;20.00;2.60;;;;;;10421573;28;20271;-79
2022/08/10 20:16:30;;;;;;;3.88;2.83;;;19.90;94.50;;;;;;10395310;28;20357;-79
2022/08/10 20:22:03;;;;;;;5.05;3.17;;;19.70;99.90;;;;;;10410421;28;20286;-79
2022/08/10 20:27:32;;;;;;;4.35;3.45;;;19.60;99.90;;;;;;10440445;28;20231;-78
2022/08/10 20:32:59;;;;;;;4.00;2.95;;;19.60;99.90;;;;;;10435140;28;20192;-79
2022/08/10 20:38:46;;;;;;;4.78;3.10;;;19.50;99.90;;;;;;10434845;28;20549;-77
2022/08/10 20:44:17;;;;;;;4.63;3.88;;;;;;;;;;10435655;28;20196;-79
2022/08/10 20:50:00;;;;;;;9.45;5.13;;;19.30;1.00;;;;;;10420418;28;20204;-78
2022/08/10 20:55:26;;;;;;;9.57;4.97;;;19.20;1.00;;;;;;10439629;28;20191;-79
2022/08/10 21:01:13;;;;;;;7.43;4.30;;;19.10;1.00;;;;;;10483576;28;20200;-78
2022/08/10 21:07:17;;;;;;;6.20;4.78;;;19.00;1.00;;;;;;10484206;28;20219;-79
2022/08/10 21:12:56;;;;;;;6.32;5.03;;;;;;;;;;10403700;28;20215;-79
2022/08/10 21:18:55;;;;;;;7.60;4.65;;;18.70;1.00;;;;;;10393879;28;20276;-78
2022/08/10 21:24:22;;;;;;;6.07;4.72;;;18.60;1.00;;;;;;10343152;28;20202;-79
2022/08/10 22:51:19;;;;;;;7.07;3.72;;;17.80;1.00;;;;;;10437376;28;20197;-80
2022/08/10 23:02:32;;;;;;;4.35;3.78;;;17.70;1.00;;;;;;10478905;28;20491;-80
2022/08/10 23:08:02;;;;;;;6.95;4.40;;;17.70;1.00;;;;;;10478430;28;20234;-80
2022/08/10 23:13:28;;;;;;;6.50;4.35;;;;;;;;;;10403428;28;20205;-78
2022/08/10 23:24:37;;;;;;;4.88;3.60;;;17.40;1.00;;;;;;10436883;28;20263;-79
2022/08/10 23:30:00;;;;;;;7.68;4.40;;;17.40;1.00;;;;;;10436771;28;20207;-79
2022/08/10 23:35:23;;;;;;;6.05;4.38;;;17.30;1.00;;;;;;10436267;28;20263;-79
2022/08/10 23:40:47;;;;;;;5.10;3.78;;;17.20;1.00;;;;;;10437227;28;20188;-79
2022/08/10 23:46:08;;;;;;;6.28;4.65;;;17.20;1.00;;;;;;10452156;28;20220;-79
2022/08/10 23:51:38;;;;;;;5.53;4.35;;;17.20;1.00;;;;;;10435802;28;20202;-78
2022/08/10 23:57:00;;;;;;;6.05;4.03;;;17.20;1.00;;;;;;10471380;28;20270;-79
